Time;durP1;ratioP1;P1;durP2;ratioP2;P2;SDS_P1;SDS_P2;PMS_P1;PMS_P2;Temp;Humidity;BMP_temperature;BMP_pressure;BME280_temperature;BME280_humidity;BME280_pressure;Samples;Min_cycle;Max_cycle;Signal;HPM_P1;HPM_P2
2024/01/05 00:00:46;;;;;;;;;;;;;;;-140.72;0.00;52143.31;5087595;28;20315;-70
2024/01/05 00:03:12;;;;;;;;;;;;;;;-140.72;0.00;52165.63;5081110;28;19921;-71
2024/01/05 00:05:39;;;;;;;;;;;;;;;-140.72;0.00;52212.31;5092843;28;20005;-70
2024/01/05 00:08:04;;;;;;;;;;;;;;;-140.72;0.00;52187.97;5081164;28;19916;-70
2024/01/05 00:10:30;;;;;;;;;;;;;;;-140.72;0.00;52224.47;5077691;28;19920;-70
2024/01/05 00:12:55;;;;;;;;;;;;;;;-140.72;0.00;52187.97;5088965;28;19928;-70
2024/01/05 00:15:20;;;;;;;;;;;;;;;-140.72;0.00;52155.50;5088595;28;19920;-71
2024/01/05 00:17:46;;;;;;;;;;;;;;;-140.72;0.00;52222.44;5091938;28;19921;-71
2024/01/05 00:20:12;;;;;;;;;;;;;;;-140.72;0.00;52161.56;5096201;28;19920;-71
2024/01/05 00:22:37;;;;;;;;;;;;;;;-140.72;0.00;52161.56;5093413;28;19920;-71
2024/01/05 00:25:03;;;;;;;;;;;;;;;-140.72;0.00;52187.97;5074124;28;20342;-71
2024/01/05 00:27:28;;;;;;;;;;;;;;;-140.72;0.00;52171.72;5090016;28;19923;-71
2024/01/05 00:29:53;;;;;;;;;;;;;;;-140.72;0.00;52192.00;5101538;28;20421;-71
2024/01/05 00:32:18;;;;;;;;;;;;;;;-140.72;0.00;52198.09;5074787;28;19927;-70
2024/01/05 00:34:44;;;;;;;;;;;;;;;-140.72;0.00;52173.75;5091251;28;19988;-70
2024/01/05 00:37:09;;;;;;;;;;;;;;;-140.72;0.00;52220.41;5101738;28;19955;-71
2024/01/05 00:39:34;;;;;;;;;;;;;;;-140.72;0.00;52200.13;5090492;28;19974;-71
2024/01/05 00:42:01;;;;;;;;;;;;;;;-140.72;0.00;52175.78;5072464;28;19922;-70
2024/01/05 00:44:27;;;;;;;;;;;;;;;-140.72;0.00;52208.25;5092725;28;19920;-71
2024/01/05 00:46:52;;;;;;;;;;;;;;;-140.72;0.00;52189.97;5097577;28;19916;-71
2024/01/05 00:49:17;;;;;;;;;;;;;;;-140.72;0.00;52198.09;5091179;28;19927;-71
2024/01/05 00:51:43;;;;;;;;;;;;;;;-140.72;0.00;52163.59;5084879;28;20370;-71
2024/01/05 00:54:08;;;;;;;;;;;;;;;-140.72;0.00;52198.09;5084796;28;19930;-71
2024/01/05 00:56:33;;;;;;;;;;;;;;;-140.72;0.00;52121.00;5109687;28;19958;-71
2024/01/05 00:58:58;;;;;;;;;;;;;;;-140.72;0.00;52161.56;5105853;28;20085;-71
2024/01/05 01:01:23;;;;;;;;;;;;;;;-140.72;0.00;52200.13;5067081;28;19916;-71
2024/01/05 01:03:49;;;;;;;;;;;;;;;-140.72;0.00;52155.50;5091157;28;20034;-71
2024/01/05 01:06:14;;;;;;;;;;;;;;;-140.72;0.00;52155.50;5082081;28;19917;-71
2024/01/05 01:08:39;;;;;;;;;;;;;;;-140.72;0.00;52141.28;5098751;28;19916;-71
2024/01/05 01:11:04;;;;;;;;;;;;;;;-140.72;0.00;52133.16;5099024;28;20011;-71
2024/01/05 01:13:29;;;;;;;;;;;;;;;-140.72;0.00;52155.50;5099661;28;20011;-71
2024/01/05 01:15:55;;;;;;;;;;;;;;;-140.72;0.00;52145.34;5101257;28;19931;-71
2024/01/05 01:18:20;;;;;;;;;;;;;;;-140.72;0.00;52127.09;5084107;28;19920;-71
2024/01/05 01:20:45;;;;;;;;;;;;;;;-140.72;0.00;52133.16;5106040;28;20027;-71
2024/01/05 01:23:10;;;;;;;;;;;;;;;-140.72;0.00;52114.91;5082364;28;19916;-71
2024/01/05 01:25:36;;;;;;;;;;;;;;;-140.72;0.00;52163.59;5091664;28;19928;-71
2024/01/05 01:28:02;;;;;;;;;;;;;;;-140.72;0.00;52141.28;5089694;28;19920;-71
2024/01/05 01:30:28;;;;;;;;;;;;;;;-140.72;0.00;52135.19;5096278;28;19974;-71
2024/01/05 01:32:53;;;;;;;;;;;;;;;-140.72;0.00;52143.31;5108876;28;19920;-70
2024/01/05 01:35:18;;;;;;;;;;;;;;;-140.72;0.00;52143.31;5095441;28;19920;-71
2024/01/05 01:37:43;;;;;;;;;;;;;;;-140.72;0.00;52135.19;5110147;28;19916;-71
2024/01/05 01:40:09;;;;;;;;;;;;;;;-140.72;0.00;52196.06;5097984;28;19965;-71
2024/01/05 01:42:34;;;;;;;;;;;;;;;-140.72;0.00;52102.75;5093600;28;20005;-71
2024/01/05 01:45:00;;;;;;;;;;;;;;;-140.72;0.00;52100.72;5088953;28;19921;-71
2024/01/05 01:47:25;;;;;;;;;;;;;;;-140.72;0.00;52125.06;5071254;28;19916;-71
2024/01/05 01:49:53;;;;;;;;;;;;;;;-140.72;0.00;52125.06;5086059;28;19961;-71
2024/01/05 01:52:18;;;;;;;;;;;;;;;-140.72;0.00;52143.31;5093588;28;19966;-71
2024/01/05 01:54:45;;;;;;;;;;;;;;;-140.72;0.00;52171.72;5087228;28;19924;-71
2024/01/05 01:57:11;;;;;;;;;;;;;;;-140.72;0.00;52204.19;5079162;28;19968;-71
2024/01/05 01:59:36;;;;;;;;;;;;;;;-140.72;0.00;52212.31;5085997;28;19984;-71
2024/01/05 02:02:02;;;;;;;;;;;;;;;-140.72;0.00;52187.97;5092845;28;20281;-71
2024/01/05 02:04:28;;;;;;;;;;;;;;;-140.72;0.00;52139.25;5095758;28;19927;-71
2024/01/05 02:06:53;;;;;;;;;;;;;;;-140.72;0.00;52139.25;5087746;28;20006;-71
2024/01/05 02:09:19;;;;;;;;;;;;;;;-140.72;0.00;52139.25;5098064;28;19920;-71
2024/01/05 02:11:44;;;;;;;;;;;;;;;-140.72;0.00;52131.16;5083091;28;20286;-71
2024/01/05 02:14:09;;;;;;;;;;;;;;;-140.72;0.00;52161.56;5088512;28;20109;-71
2024/01/05 02:16:34;;;;;;;;;;;;;;;-140.72;0.00;52192.00;5094671;28;20397;-71
2024/01/05 02:19:00;;;;;;;;;;;;;;;-140.72;0.00;52157.53;5086010;28;19927;-71
2024/01/05 02:21:28;;;;;;;;;;;;;;;-140.72;0.00;52165.63;5096713;28;19916;-71
2024/01/05 02:23:54;;;;;;;;;;;;;;;-140.72;0.00;52110.84;5083618;28;19963;-71
2024/01/05 02:26:19;;;;;;;;;;;;;;;-140.72;0.00;52163.59;5094961;28;20017;-72
2024/01/05 02:28:44;;;;;;;;;;;;;;;-140.72;0.00;52200.13;5100608;28;20403;-72
2024/01/05 02:31:10;;;;;;;;;;;;;;;-140.72;0.00;52169.69;5092820;28;19944;-71
2024/01/05 02:33:36;;;;;;;;;;;;;;;-140.72;0.00;52133.16;5088025;28;20053;-71
2024/01/05 02:36:01;;;;;;;;;;;;;;;-140.72;0.00;52127.09;5100550;28;20358;-71
2024/01/05 02:38:26;;;;;;;;;;;;;;;-140.72;0.00;52151.44;5092454;28;20388;-71
2024/01/05 02:40:55;;;;;;;;;;;;;;;-140.72;0.00;52127.09;5101488;28;19932;-72
2024/01/05 02:43:20;;;;;;;;;;;;;;;-140.72;0.00;52123.03;5089156;28;20347;-71
2024/01/05 02:45:48;;;;;;;;;;;;;;;-140.72;0.00;52131.16;5089734;28;20019;-71
2024/01/05 02:48:13;;;;;;;;;;;;;;;-140.72;0.00;52145.34;5087760;28;20011;-71
2024/01/05 02:50:38;;;;;;;;;;;;;;;-140.72;0.00;52159.56;5090043;28;19971;-71
2024/01/05 02:53:03;;;;;;;;;;;;;;;-140.72;0.00;52175.78;5088672;28;20392;-71
2024/01/05 02:55:29;;;;;;;;;;;;;;;-140.72;0.00;52143.31;5095652;28;20385;-71
2024/01/05 02:57:54;;;;;;;;;;;;;;;-140.72;0.00;52129.13;5075705;28;20032;-71
2024/01/05 03:00:19;;;;;;;;;;;;;;;-140.72;0.00;52151.44;5090193;28;19969;-71
2024/01/05 03:02:44;;;;;;;;;;;;;;;-140.72;0.00;52129.13;5083744;28;19924;-72
2024/01/05 03:05:09;;;;;;;;;;;;;;;-140.72;0.00;52165.63;5079744;28;19927;-72
2024/01/05 03:07:35;;;;;;;;;;;;;;;-140.72;0.00;52167.66;5099701;28;19920;-71
2024/01/05 03:10:00;;;;;;;;;;;;;;;-140.72;0.00;52192.00;5101205;28;19935;-72
2024/01/05 03:12:25;;;;;;;;;;;;;;;-140.72;0.00;52179.84;5083703;28;20415;-71
2024/01/05 03:14:50;;;;;;;;;;;;;;;-140.72;0.00;52187.97;5075944;28;19928;-71
2024/01/05 03:17:16;;;;;;;;;;;;;;;-140.72;0.00;52210.28;5095721;28;19950;-71
2024/01/05 03:19:41;;;;;;;;;;;;;;;-140.72;0.00;52177.81;5091596;28;20305;-71
2024/01/05 03:22:06;;;;;;;;;;;;;;;-140.72;0.00;52127.09;5091393;28;20010;-71
2024/01/05 03:24:32;;;;;;;;;;;;;;;-140.72;0.00;52167.66;5078435;28;20390;-71
2024/01/05 03:26:57;;;;;;;;;;;;;;;-140.72;0.00;52208.25;5087840;28;19920;-71
2024/01/05 03:29:22;;;;;;;;;;;;;;;-140.72;0.00;52218.38;5088289;28;20359;-71
2024/01/05 03:31:47;;;;;;;;;;;;;;;-140.72;0.00;52216.34;5091772;28;20161;-71
2024/01/05 03:34:13;;;;;;;;;;;;;;;-140.72;0.00;52252.88;5067523;28;19920;-71
2024/01/05 03:36:38;;;;;;;;;;;;;;;-140.72;0.00;52222.44;5082683;28;20295;-71
2024/01/05 03:39:06;;;;;;;;;;;;;;;-140.72;0.00;52212.31;5086464;28;20016;-71
2024/01/05 03:41:31;;;;;;;;;;;;;;;-140.72;0.00;52167.66;5070041;28;19934;-71
2024/01/05 03:43:56;;;;;;;;;;;;;;;-140.72;0.00;52159.56;5100810;28;19927;-71
2024/01/05 03:46:22;;;;;;;;;;;;;;;-140.72;0.00;52171.72;5077449;28;20007;-71
2024/01/05 03:48:47;;;;;;;;;;;;;;;-140.72;0.00;52185.94;5097765;28;19971;-71
2024/01/05 03:51:12;;;;;;;;;;;;;;;-140.72;0.00;52167.66;5097276;28;19960;-71
2024/01/05 03:53:37;;;;;;;;;;;;;;;-140.72;0.00;52200.13;5096220;28;19970;-71
2024/01/05 03:56:03;;;;;;;;;;;;;;;-140.72;0.00;52187.97;5094270;28;19924;-71
2024/01/05 03:58:28;;;;;;;;;;;;;;;-140.72;0.00;52220.41;5091288;28;19930;-71
2024/01/05 04:00:54;;;;;;;;;;;;;;;-140.72;0.00;52169.69;5089952;28;20109;-71
2024/01/05 04:03:19;;;;;;;;;;;;;;;-140.72;0.00;52173.75;5072995;28;20332;-71
2024/01/05 04:05:45;;;;;;;;;;;;;;;-140.72;0.00;52189.97;5070889;28;20345;-71
2024/01/05 04:08:10;;;;;;;;;;;;;;;-140.72;0.00;52216.34;5086477;28;19994;-71
2024/01/05 04:10:35;;;;;;;;;;;;;;;-140.72;0.00;52236.66;5086161;28;20358;-71
2024/01/05 04:13:01;;;;;;;;;;;;;;;-140.72;0.00;52208.25;5077993;28;19927;-71
2024/01/05 04:15:27;;;;;;;;;;;;;;;-140.72;0.00;52183.91;5087201;28;19919;-71
2024/01/05 04:17:52;;;;;;;;;;;;;;;-140.72;0.00;52155.50;5087864;28;20004;-71
2024/01/05 04:20:18;;;;;;;;;;;;;;;-140.72;0.00;52214.34;5097761;28;20027;-71
2024/01/05 04:22:43;;;;;;;;;;;;;;;-140.72;0.00;52171.72;5103692;28;19970;-71
2024/01/05 04:25:08;;;;;;;;;;;;;;;-140.72;0.00;52224.47;5109780;28;19924;-71
2024/01/05 04:27:33;;;;;;;;;;;;;;;-140.72;0.00;52216.34;5088841;28;19959;-71
2024/01/05 04:29:59;;;;;;;;;;;;;;;-140.72;0.00;52196.06;5079945;28;19960;-71
2024/01/05 04:32:24;;;;;;;;;;;;;;;-140.72;0.00;52185.94;5094933;28;19951;-71
2024/01/05 04:34:49;;;;;;;;;;;;;;;-140.72;0.00;52206.22;5090060;28;20366;-71
2024/01/05 04:37:14;;;;;;;;;;;;;;;-140.72;0.00;52242.75;5088658;28;20362;-71
2024/01/05 04:39:40;;;;;;;;;;;;;;;-140.72;0.00;52214.34;5090184;28;19968;-71
2024/01/05 04:42:05;;;;;;;;;;;;;;;-140.72;0.00;52224.47;5089590;28;19975;-71
2024/01/05 04:44:30;;;;;;;;;;;;;;;-140.72;0.00;52214.34;5089538;28;19931;-70
2024/01/05 04:46:55;;;;;;;;;;;;;;;-140.72;0.00;52202.16;5086912;28;20007;-70
2024/01/05 04:49:21;;;;;;;;;;;;;;;-140.72;0.00;52206.22;5087112;28;19962;-70
2024/01/05 04:51:46;;;;;;;;;;;;;;;-140.72;0.00;52240.72;5081596;28;19959;-71
2024/01/05 04:54:11;;;;;;;;;;;;;;;-140.72;0.00;52206.22;5094011;28;19971;-71
2024/01/05 04:56:37;;;;;;;;;;;;;;;-140.72;0.00;52204.19;5089855;28;20023;-71
2024/01/05 04:59:02;;;;;;;;;;;;;;;-140.72;0.00;52210.28;5100501;28;19966;-71
2024/01/05 05:01:27;;;;;;;;;;;;;;;-140.72;0.00;52220.41;5096794;28;20272;-71
2024/01/05 05:03:52;;;;;;;;;;;;;;;-140.72;0.00;52230.56;5086032;28;19921;-71
2024/01/05 05:06:18;;;;;;;;;;;;;;;-140.72;0.00;52212.31;5090720;28;19951;-71
2024/01/05 05:08:43;;;;;;;;;;;;;;;-140.72;0.00;52230.56;5087323;28;19931;-71
2024/01/05 05:11:08;;;;;;;;;;;;;;;-140.72;0.00;52232.59;5091310;28;20495;-69
2024/01/05 05:13:33;;;;;;;;;;;;;;;-140.72;0.00;52242.75;5083090;28;19957;-70
2024/01/05 05:15:59;;;;;;;;;;;;;;;-140.72;0.00;52273.19;5086845;28;19920;-70
2024/01/05 05:18:24;;;;;;;;;;;;;;;-140.72;0.00;52265.06;5087678;28;19921;-71
2024/01/05 05:20:49;;;;;;;;;;;;;;;-140.72;0.00;52269.13;5089351;28;19920;-73
2024/01/05 05:23:14;;;;;;;;;;;;;;;-140.72;0.00;52281.28;5062443;28;19916;-74
2024/01/05 05:25:40;;;;;;;;;;;;;;;-140.72;0.00;52281.28;5081527;28;20345;-72
2024/01/05 05:28:05;;;;;;;;;;;;;;;-140.72;0.00;52327.97;5081852;28;20003;-73
2024/01/05 05:30:31;;;;;;;;;;;;;;;-140.72;0.00;52291.44;5092092;28;19916;-74
2024/01/05 05:32:56;;;;;;;;;;;;;;;-140.72;0.00;52279.25;5074012;28;20027;-77
2024/01/05 05:35:22;;;;;;;;;;;;;;;-140.72;0.00;52301.59;5079850;28;20293;-71
2024/01/05 05:37:47;;;;;;;;;;;;;;;-140.72;0.00;52297.53;5076204;28;20466;-72
2024/01/05 05:40:12;;;;;;;;;;;;;;;-140.72;0.00;52273.19;5083718;28;20294;-72
2024/01/05 05:42:37;;;;;;;;;;;;;;;-140.72;0.00;52289.41;5090957;28;20346;-72
2024/01/05 05:45:03;;;;;;;;;;;;;;;-140.72;0.00;52244.78;5077243;28;19921;-73
2024/01/05 05:47:28;;;;;;;;;;;;;;;-140.72;0.00;52224.47;5093872;28;19945;-74
2024/01/05 05:49:53;;;;;;;;;;;;;;;-140.72;0.00;52244.78;5097844;28;19979;-73
2024/01/05 05:52:18;;;;;;;;;;;;;;;-140.72;0.00;52218.38;5096268;28;19978;-73
2024/01/05 05:54:43;;;;;;;;;;;;;;;-140.72;0.00;52226.50;5093528;28;19928;-74
2024/01/05 05:57:09;;;;;;;;;;;;;;;-140.72;0.00;52216.34;5099995;28;19920;-74
2024/01/05 05:59:34;;;;;;;;;;;;;;;-140.72;0.00;52267.09;5096145;28;19920;-73
2024/01/05 06:01:59;;;;;;;;;;;;;;;-140.72;0.00;52210.28;5096418;28;20254;-73
2024/01/05 06:04:25;;;;;;;;;;;;;;;-140.72;0.00;52236.66;5096557;28;19927;-71
2024/01/05 06:06:50;;;;;;;;;;;;;;;-140.72;0.00;52226.50;5098775;28;19991;-75
2024/01/05 06:09:16;;;;;;;;;;;;;;;-140.72;0.00;52252.88;5094142;28;19943;-72
2024/01/05 06:11:41;;;;;;;;;;;;;;;-140.72;0.00;52283.31;5093046;28;19921;-73
2024/01/05 06:14:06;;;;;;;;;;;;;;;-140.72;0.00;52261.00;5098987;28;19928;-72
2024/01/05 06:16:32;;;;;;;;;;;;;;;-140.72;0.00;52240.72;5107294;28;19920;-73
2024/01/05 06:18:57;;;;;;;;;;;;;;;-140.72;0.00;52226.50;5109805;28;19941;-73
2024/01/05 06:21:23;;;;;;;;;;;;;;;-140.72;0.00;52236.66;5094504;28;20383;-74
2024/01/05 06:23:48;;;;;;;;;;;;;;;-140.72;0.00;52271.16;5100584;28;19984;-72
2024/01/05 06:26:14;;;;;;;;;;;;;;;-140.72;0.00;52271.16;5102410;28;19943;-72
2024/01/05 06:28:39;;;;;;;;;;;;;;;-140.72;0.00;52281.28;5095323;28;19920;-73
2024/01/05 06:31:05;;;;;;;;;;;;;;;-140.72;0.00;52267.09;5104376;28;19920;-71
2024/01/05 06:33:30;;;;;;;;;;;;;;;-140.72;0.00;52240.72;5078897;28;19920;-71
2024/01/05 06:35:55;;;;;;;;;;;;;;;-140.72;0.00;52279.25;5096283;28;20281;-71
2024/01/05 06:38:20;;;;;;;;;;;;;;;-140.72;0.00;52315.78;5099082;28;19920;-71
2024/01/05 06:40:46;;;;;;;;;;;;;;;-140.72;0.00;52321.88;5095182;28;20289;-71
2024/01/05 06:43:11;;;;;;;;;;;;;;;-140.72;0.00;52263.03;5094273;28;20047;-71
2024/01/05 06:45:37;;;;;;;;;;;;;;;-140.72;0.00;52289.41;5100182;28;20040;-72
2024/01/05 06:48:02;;;;;;;;;;;;;;;-140.72;0.00;52305.63;5100084;28;20336;-72
2024/01/05 06:50:27;;;;;;;;;;;;;;;-140.72;0.00;52301.59;5100924;28;19920;-72
2024/01/05 06:52:53;;;;;;;;;;;;;;;-140.72;0.00;52330.00;5093929;28;20057;-71
2024/01/05 06:55:19;;;;;;;;;;;;;;;-140.72;0.00;52301.59;5092419;28;19963;-71
2024/01/05 06:57:47;;;;;;;;;;;;;;;-140.72;0.00;52291.44;5095139;28;20288;-71
2024/01/05 07:00:13;;;;;;;;;;;;;;;-140.72;0.00;52307.66;5101286;28;20324;-71
2024/01/05 07:02:38;;;;;;;;;;;;;;;-140.72;0.00;52307.66;5099128;28;19932;-71
2024/01/05 07:05:04;;;;;;;;;;;;;;;-140.72;0.00;52263.03;5098921;28;19920;-72
2024/01/05 07:07:30;;;;;;;;;;;;;;;-140.72;0.00;52291.44;5079315;28;19921;-72
2024/01/05 07:09:56;;;;;;;;;;;;;;;-140.72;0.00;52325.94;5108011;28;19924;-71
2024/01/05 07:12:21;;;;;;;;;;;;;;;-140.72;0.00;52301.59;5097186;28;20369;-71
2024/01/05 07:14:47;;;;;;;;;;;;;;;-140.72;0.00;52289.41;5091917;28;21406;-70
2024/01/05 07:17:12;;;;;;;;;;;;;;;-140.72;0.00;52313.75;5098126;28;20269;-70
2024/01/05 07:19:38;;;;;;;;;;;;;;;-140.72;0.00;52277.22;5097457;28;19981;-71
2024/01/05 07:22:03;;;;;;;;;;;;;;;-140.72;0.00;52291.44;5088314;28;19931;-71
2024/01/05 07:24:28;;;;;;;;;;;;;;;-140.72;0.00;52244.78;5102364;28;19949;-74
2024/01/05 07:26:53;;;;;;;;;;;;;;;-140.72;0.00;52261.00;5100977;28;20362;-70
2024/01/05 07:29:19;;;;;;;;;;;;;;;-140.72;0.00;52271.16;5095535;28;19996;-71
2024/01/05 07:31:45;;;;;;;;;;;;;;;-140.72;0.00;52299.56;5075255;28;19974;-70
2024/01/05 07:34:10;;;;;;;;;;;;;;;-140.72;0.00;52317.81;5087565;28;19924;-71
2024/01/05 07:36:40;;;;;;;;;;;;;;;-140.72;0.00;52319.84;5076507;28;20373;-70
2024/01/05 07:39:05;;;;;;;;;;;;;;;-140.72;0.00;52321.88;5094550;28;19916;-71
2024/01/05 07:41:30;;;;;;;;;;;;;;;-140.72;0.00;52315.78;5095097;28;19931;-71
2024/01/05 07:43:55;;;;;;;;;;;;;;;-140.72;0.00;52309.69;5075332;28;19943;-71
2024/01/05 07:46:22;;;;;;;;;;;;;;;-140.72;0.00;52307.66;5076860;28;19916;-74
2024/01/05 07:48:47;;;;;;;;;;;;;;;-140.72;0.00;52311.72;5084162;28;20011;-75
2024/01/05 07:51:12;;;;;;;;;;;;;;;-140.72;0.00;52342.16;5097992;28;19955;-71
2024/01/05 07:53:38;;;;;;;;;;;;;;;-140.72;0.00;52325.94;5100070;28;20357;-71
2024/01/05 07:56:04;;;;;;;;;;;;;;;-140.72;0.00;52323.91;5090648;28;19920;-71
2024/01/05 07:58:29;;;;;;;;;;;;;;;-140.72;0.00;52338.09;5084621;28;19963;-71
2024/01/05 08:00:54;;;;;;;;;;;;;;;-140.72;0.00;52334.03;5102528;28;19923;-71
2024/01/05 08:03:21;;;;;;;;;;;;;;;-140.72;0.00;52376.66;5100357;28;19923;-71
2024/01/05 08:05:46;;;;;;;;;;;;;;;-140.72;0.00;52338.09;5092696;28;19923;-71
2024/01/05 08:08:11;;;;;;;;;;;;;;;-140.72;0.00;52325.94;5094453;28;20309;-71
2024/01/05 08:10:37;;;;;;;;;;;;;;;-140.72;0.00;52378.69;5090743;28;20277;-71
2024/01/05 08:13:02;;;;;;;;;;;;;;;-140.72;0.00;52366.50;5093062;28;19972;-70
2024/01/05 08:15:27;;;;;;;;;;;;;;;-140.72;0.00;52376.66;5097666;28;20308;-71
2024/01/05 08:17:53;;;;;;;;;;;;;;;-140.72;0.00;52297.53;5091151;28;20343;-71
2024/01/05 08:20:18;;;;;;;;;;;;;;;-140.72;0.00;52315.78;5092427;28;20399;-71
2024/01/05 08:22:43;;;;;;;;;;;;;;;-140.72;0.00;52334.03;5069738;28;19954;-71
2024/01/05 08:25:09;;;;;;;;;;;;;;;-140.72;0.00;52305.63;5092193;28;20269;-71
2024/01/05 08:27:34;;;;;;;;;;;;;;;-140.72;0.00;52305.63;5091009;28;19924;-71
2024/01/05 08:29:59;;;;;;;;;;;;;;;-140.72;0.00;52327.97;5098172;28;19991;-71
2024/01/05 08:32:24;;;;;;;;;;;;;;;-140.72;0.00;52301.59;5095850;28;19947;-71
2024/01/05 08:34:49;;;;;;;;;;;;;;;-140.72;0.00;52340.13;5086182;28;19916;-71
2024/01/05 08:37:15;;;;;;;;;;;;;;;-140.72;0.00;52321.88;5101525;28;19919;-71
2024/01/05 08:39:41;;;;;;;;;;;;;;;-140.72;0.00;52342.16;5089088;28;19989;-71
2024/01/05 08:42:07;;;;;;;;;;;;;;;-140.72;0.00;52338.09;5073219;28;19920;-71
2024/01/05 08:44:32;;;;;;;;;;;;;;;-140.72;0.00;52350.28;5091601;28;19927;-71
2024/01/05 08:46:58;;;;;;;;;;;;;;;-140.72;0.00;52346.22;5082163;28;20442;-71
2024/01/05 08:49:23;;;;;;;;;;;;;;;-140.72;0.00;52340.13;5085554;28;20006;-71
2024/01/05 08:51:48;;;;;;;;;;;;;;;-140.72;0.00;52321.88;5090959;28;19931;-71
2024/01/05 08:54:13;;;;;;;;;;;;;;;-140.72;0.00;52384.78;5091784;28;19920;-71
2024/01/05 08:56:39;;;;;;;;;;;;;;;-140.72;0.00;52334.03;5102875;28;19916;-71
2024/01/05 08:59:07;;;;;;;;;;;;;;;-140.72;0.00;52334.03;5081061;28;20483;-72
2024/01/05 09:01:32;;;;;;;;;;;;;;;-140.72;0.00;52325.94;5097943;28;20011;-71
2024/01/05 09:03:58;;;;;;;;;;;;;;;-140.72;0.00;52299.56;5091197;28;20001;-71
2024/01/05 09:06:23;;;;;;;;;;;;;;;-140.72;0.00;52289.41;5091327;28;19916;-71
2024/01/05 09:08:49;;;;;;;;;;;;;;;-140.72;0.00;52334.03;5084284;28;19971;-71
2024/01/05 09:11:14;;;;;;;;;;;;;;;-140.72;0.00;52323.91;5082113;28;19916;-71
2024/01/05 09:13:39;;;;;;;;;;;;;;;-140.72;0.00;52309.69;5099723;28;20015;-71
2024/01/05 09:16:05;;;;;;;;;;;;;;;-140.72;0.00;52348.25;5069128;28;19916;-71
2024/01/05 09:18:33;;;;;;;;;;;;;;;-140.72;0.00;52340.13;5088206;28;19999;-71
2024/01/05 09:20:59;;;;;;;;;;;;;;;-140.72;0.00;52303.59;5090893;28;19924;-71
2024/01/05 09:23:24;;;;;;;;;;;;;;;-140.72;0.00;52334.03;5092797;28;19973;-72
2024/01/05 09:25:49;;;;;;;;;;;;;;;-140.72;0.00;52364.47;5091274;28;19916;-72
2024/01/05 09:28:15;;;;;;;;;;;;;;;-140.72;0.00;52323.91;5099329;28;19920;-71
2024/01/05 09:30:40;;;;;;;;;;;;;;;-140.72;0.00;52305.63;5100147;28;19971;-71
2024/01/05 09:33:05;;;;;;;;;;;;;;;-140.72;0.00;52338.09;5082918;28;20350;-71
2024/01/05 09:35:30;;;;;;;;;;;;;;;-140.72;0.00;52338.09;5095466;28;20002;-72
2024/01/05 09:37:55;;;;;;;;;;;;;;;-140.72;0.00;52323.91;5104626;28;19980;-73
2024/01/05 09:40:21;;;;;;;;;;;;;;;-140.72;0.00;52293.47;5103243;28;19920;-72
2024/01/05 09:42:50;;;;;;;;;;;;;;;-140.72;0.00;52305.63;5091884;28;19947;-72
2024/01/05 09:45:15;;;;;;;;;;;;;;;-140.72;0.00;52327.97;5096891;28;19999;-73
2024/01/05 09:47:42;;;;;;;;;;;;;;;-140.72;0.00;52311.72;5092855;28;20351;-79
2024/01/05 09:50:09;;;;;;;;;;;;;;;-140.72;0.00;52356.38;5097626;28;20390;-70
2024/01/05 09:52:34;;;;;;;;;;;;;;;-140.72;0.00;52330.00;5106297;28;20023;-72
2024/01/05 09:54:59;;;;;;;;;;;;;;;-140.72;0.00;52301.59;5093730;28;19945;-71
2024/01/05 09:57:25;;;;;;;;;;;;;;;-140.72;0.00;52327.97;5098177;28;19962;-71
2024/01/05 09:59:50;;;;;;;;;;;;;;;-140.72;0.00;52297.53;5085152;28;20355;-71
2024/01/05 10:02:21;;;;;;;;;;;;;;;-140.72;0.00;52297.53;5097213;28;20386;-72
2024/01/05 10:04:46;;;;;;;;;;;;;;;-140.72;0.00;52293.47;5081963;28;19916;-71
2024/01/05 10:07:11;;;;;;;;;;;;;;;-140.72;0.00;52277.22;5081256;28;19981;-73
2024/01/05 10:09:47;;;;;;;;;;;;;;;-140.72;0.00;52269.13;5094276;28;19917;-73
2024/01/05 10:12:13;;;;;;;;;;;;;;;-140.72;0.00;52305.63;5095240;28;19931;-72
2024/01/05 10:14:38;;;;;;;;;;;;;;;-140.72;0.00;52309.69;5093207;28;19920;-75
2024/01/05 10:17:10;;;;;;;;;;;;;;;-140.72;0.00;52350.28;5091373;28;19920;-71
2024/01/05 10:19:35;;;;;;;;;;;;;;;-140.72;0.00;52330.00;5092513;28;19930;-71
2024/01/05 10:22:08;;;;;;;;;;;;;;;-140.72;0.00;52277.22;5082079;28;19992;-73
2024/01/05 10:24:33;;;;;;;;;;;;;;;-140.72;0.00;52305.63;5086028;28;19967;-72
2024/01/05 10:27:04;;;;;;;;;;;;;;;-140.72;0.00;52291.44;5088101;28;19958;-72
2024/01/05 10:29:30;;;;;;;;;;;;;;;-140.72;0.00;52291.44;5101790;28;19924;-71
2024/01/05 10:32:09;;;;;;;;;;;;;;;-140.72;0.00;52307.66;5089371;28;19920;-70
2024/01/05 10:34:34;;;;;;;;;;;;;;;-140.72;0.00;52311.72;5079602;28;19921;-71
2024/01/05 10:37:04;;;;;;;;;;;;;;;-140.72;0.00;52285.34;5089822;28;20263;-71
2024/01/05 10:39:30;;;;;;;;;;;;;;;-140.72;0.00;52315.78;5084742;28;20024;-71
2024/01/05 10:41:56;;;;;;;;;;;;;;;-140.72;0.00;52293.47;5096668;28;20433;-71
2024/01/05 10:44:23;;;;;;;;;;;;;;;-140.72;0.00;52334.03;5091171;28;19977;-72
2024/01/05 10:46:49;;;;;;;;;;;;;;;-140.72;0.00;52285.34;5097111;28;20370;-71
2024/01/05 10:49:15;;;;;;;;;;;;;;;-140.72;0.00;52334.03;5093347;28;19924;-71
2024/01/05 10:51:41;;;;;;;;;;;;;;;-140.72;0.00;52342.16;5095279;28;20271;-72
2024/01/05 10:54:07;;;;;;;;;;;;;;;-140.72;0.00;52317.81;5089839;28;19930;-71
2024/01/05 10:56:33;;;;;;;;;;;;;;;-140.72;0.00;52285.34;5083807;28;19920;-70
2024/01/05 10:58:59;;;;;;;;;;;;;;;-140.72;0.00;52265.06;5087116;28;19924;-69
2024/01/05 11:01:25;;;;;;;;;;;;;;;-140.72;0.00;52281.28;5091260;28;20018;-72
2024/01/05 11:03:52;;;;;;;;;;;;;;;-140.72;0.00;52321.88;5087689;28;19977;-72
2024/01/05 11:06:18;;;;;;;;;;;;;;;-140.72;0.00;52261.00;5097233;28;19931;-71
2024/01/05 11:08:53;;;;;;;;;;;;;;;-140.72;0.00;52275.19;5087556;28;20041;-74
2024/01/05 11:11:32;;;;;;;;;;;;;;;-140.72;0.00;52279.25;5093164;28;19920;-71
2024/01/05 11:14:00;;;;;;;;;;;;;;;-140.72;0.00;52334.03;5087233;28;19956;-73
2024/01/05 11:16:25;;;;;;;;;;;;;;;-140.72;0.00;52287.38;5087669;28;19920;-72
2024/01/05 11:18:56;;;;;;;;;;;;;;;-140.72;0.00;52303.59;5107740;28;19919;-71
2024/01/05 11:21:35;;;;;;;;;;;;;;;-140.72;0.00;52236.66;5100805;28;19925;-71
2024/01/05 11:24:00;;;;;;;;;;;;;;;-140.72;0.00;52269.13;5092628;28;19927;-72
2024/01/05 11:26:43;;;;;;;;;;;;;;;-140.72;0.00;52265.06;5094368;28;19960;-74
2024/01/05 11:29:10;;;;;;;;;;;;;;;-140.72;0.00;52277.22;5105405;28;20354;-75
2024/01/05 11:31:47;;;;;;;;;;;;;;;-140.72;0.00;52285.34;5091066;28;20389;-74
2024/01/05 11:34:31;;;;;;;;;;;;;;;-140.72;0.00;52263.03;5067070;28;19916;-73
2024/01/05 11:36:57;;;;;;;;;;;;;;;-140.72;0.00;52287.38;5065096;28;19959;-73
2024/01/05 11:39:37;;;;;;;;;;;;;;;-140.72;0.00;52313.75;5093559;28;20278;-72
2024/01/05 11:42:03;;;;;;;;;;;;;;;-140.72;0.00;52295.50;5097380;28;19967;-72
2024/01/05 11:44:34;;;;;;;;;;;;;;;-140.72;0.00;52342.16;5094095;28;19959;-73
2024/01/05 11:47:02;;;;;;;;;;;;;;;-140.72;0.00;52263.03;5088227;28;19920;-74
2024/01/05 11:49:38;;;;;;;;;;;;;;;-140.72;0.00;52242.75;5098965;28;19927;-72
2024/01/05 11:52:04;;;;;;;;;;;;;;;-140.72;0.00;52327.97;5098084;28;19924;-72
2024/01/05 11:54:30;;;;;;;;;;;;;;;-140.72;0.00;52313.75;5097653;28;20460;-71
2024/01/05 11:56:57;;;;;;;;;;;;;;;-140.72;0.00;52287.38;5081626;28;20498;-71
2024/01/05 11:59:23;;;;;;;;;;;;;;;-140.72;0.00;52289.41;5095655;28;19928;-71
2024/01/05 12:01:52;;;;;;;;;;;;;;;-140.72;0.00;52265.06;5094194;28;19931;-71
2024/01/05 12:04:17;;;;;;;;;;;;;;;-140.72;0.00;52283.31;5098044;28;19988;-72
2024/01/05 12:06:50;;;;;;;;;;;;;;;-140.72;0.00;52256.94;5077987;28;19928;-72
2024/01/05 12:09:18;;;;;;;;;;;;;;;-140.72;0.00;52277.22;5085090;28;19930;-72
2024/01/05 12:11:43;;;;;;;;;;;;;;;-140.72;0.00;52252.88;5081976;28;20377;-73
2024/01/05 12:14:08;;;;;;;;;;;;;;;-140.72;0.00;52236.66;5104993;28;19953;-72
2024/01/05 12:16:34;;;;;;;;;;;;;;;-140.72;0.00;52246.78;5102258;28;20385;-72
2024/01/05 12:18:59;;;;;;;;;;;;;;;-140.72;0.00;52240.72;5103298;28;19927;-74
2024/01/05 12:21:24;;;;;;;;;;;;;;;-140.72;0.00;52271.16;5078133;28;19931;-72
2024/01/05 12:24:01;;;;;;;;;;;;;;;-140.72;0.00;52299.56;5080618;28;19934;-72
2024/01/05 12:26:28;;;;;;;;;;;;;;;-140.72;0.00;52303.59;5092632;28;20002;-72
2024/01/05 12:28:54;;;;;;;;;;;;;;;-140.72;0.00;52240.72;5077849;28;19974;-72